Time;durP1;ratioP1;P1;durP2;ratioP2;P2;SDS_P1;SDS_P2;PMS_P1;PMS_P2;Temp;Humidity;BMP_temperature;BMP_pressure;BME280_temperature;BME280_humidity;BME280_pressure;Samples;Min_cycle;Max_cycle;Signal;HPM_P1;HPM_P2
2023/11/06 00:04:48;;;;;;;0.98;0.88;;;;;;;;;;10291327;28;20075;-57
2023/11/06 00:09:48;;;;;;;1.10;1.00;;;;;;;;;;10291791;28;20075;-56
2023/11/06 00:14:47;;;;;;;3.72;1.25;;;;;;;;;;10290382;28;20498;-57
2023/11/06 00:19:45;;;;;;;1.63;1.02;;;;;;;;;;10290325;28;20080;-58
2023/11/06 00:24:43;;;;;;;0.70;0.70;;;;;;;;;;10291498;28;20504;-59
2023/11/06 00:29:43;;;;;;;2.10;1.27;;;;;;;;;;10290243;28;20083;-59
2023/11/06 00:34:41;;;;;;;1.27;1.05;;;;;;;;;;10287779;28;20076;-59
2023/11/06 00:39:39;;;;;;;1.20;1.02;;;;;;;;;;10290928;28;20068;-58
2023/11/06 00:44:38;;;;;;;1.40;1.00;;;;;;;;;;10290408;28;20079;-59
2023/11/06 00:49:38;;;;;;;1.10;1.00;;;;;;;;;;10290216;28;20524;-58
2023/11/06 00:54:37;;;;;;;0.90;0.90;;;;;;;;;;10290081;28;20065;-58
2023/11/06 00:59:35;;;;;;;1.85;1.00;;;;;;;;;;10286597;28;20064;-57
2023/11/06 01:04:33;;;;;;;1.27;1.17;;;;;;;;;;10289755;28;20068;-59
2023/11/06 01:09:33;;;;;;;0.90;0.90;;;;;;;;;;10287934;28;20071;-58
2023/11/06 01:14:31;;;;;;;1.08;0.98;;;;;;;;;;10292531;28;20067;-58
2023/11/06 01:19:29;;;;;;;1.95;1.15;;;;;;;;;;10288839;28;20079;-59
2023/11/06 01:24:27;;;;;;;1.00;1.00;;;;;;;;;;10289068;28;20092;-59
2023/11/06 01:29:27;;;;;;;1.70;1.38;;;;;;;;;;10288372;28;20079;-59
2023/11/06 01:34:26;;;;;;;1.38;1.17;;;;;;;;;;10289146;28;20123;-59
2023/11/06 01:39:24;;;;;;;1.30;0.98;;;;;;;;;;10295268;28;20080;-59
2023/11/06 01:44:23;;;;;;;1.00;0.95;;;;;;;;;;10289253;28;20075;-59
2023/11/06 01:49:23;;;;;;;1.33;1.23;;;;;;;;;;10291216;28;20118;-58
2023/11/06 01:54:21;;;;;;;1.83;1.25;;;;;;;;;;10292803;28;20083;-58
2023/11/06 01:59:19;;;;;;;1.30;1.00;;;;;;;;;;10298602;28;20068;-58
2023/11/06 02:04:17;;;;;;;2.25;1.80;;;;;;;;;;10296324;28;20060;-58
2023/11/06 02:09:18;;;;;;;1.30;1.20;;;;;;;;;;10293482;28;20065;-57
2023/11/06 02:14:16;;;;;;;1.05;0.98;;;;;;;;;;10295026;28;20061;-59
2023/11/06 02:19:14;;;;;;;2.25;1.20;;;;;;;;;;10301845;28;20064;-59
2023/11/06 02:24:14;;;;;;;0.85;0.85;;;;;;;;;;10295402;28;20065;-58
2023/11/06 02:29:13;;;;;;;2.33;1.00;;;;;;;;;;10291821;28;20064;-58
2023/11/06 02:34:11;;;;;;;1.25;1.15;;;;;;;;;;10297634;28;20072;-58
2023/11/06 02:39:09;;;;;;;2.03;1.15;;;;;;;;;;10293779;28;20061;-57
2023/11/06 02:44:11;;;;;;;1.08;1.00;;;;;;;;;;10293076;28;20069;-58
2023/11/06 02:49:10;;;;;;;1.73;1.63;;;;;;;;;;10294614;28;20072;-57
2023/11/06 02:54:09;;;;;;;2.00;0.90;;;;;;;;;;10293376;28;20072;-58
2023/11/06 02:59:07;;;;;;;2.55;0.98;;;;;;;;;;10294311;28;20560;-58
2023/11/06 03:04:07;;;;;;;2.25;1.10;;;;;;;;;;10287531;28;21311;-58
2023/11/06 03:09:06;;;;;;;0.80;0.80;;;;;;;;;;10286591;28;20064;-59
2023/11/06 03:14:05;;;;;;;1.38;0.93;;;;;;;;;;10289952;28;20080;-59
2023/11/06 03:19:03;;;;;;;1.40;1.30;;;;;;;;;;10293562;28;20076;-58
2023/11/06 03:24:03;;;;;;;1.20;1.10;;;;;;;;;;10291430;28;20076;-58
2023/11/06 03:29:01;;;;;;;2.70;1.10;;;;;;;;;;10292530;28;20079;-58
2023/11/06 03:33:59;;;;;;;1.80;1.25;;;;;;;;;;10295375;28;20060;-59
2023/11/06 03:38:58;;;;;;;1.27;1.15;;;;;;;;;;10297450;28;20470;-58
2023/11/06 03:43:57;;;;;;;0.98;0.90;;;;;;;;;;10299922;28;20476;-59
2023/11/06 03:48:56;;;;;;;0.98;0.98;;;;;;;;;;10296821;28;20068;-58
2023/11/06 03:53:55;;;;;;;0.80;0.80;;;;;;;;;;10293251;28;20083;-58
2023/11/06 03:58:53;;;;;;;1.23;0.98;;;;;;;;;;10292580;28;20083;-57
2023/11/06 04:03:59;;;;;;;1.38;1.08;;;;;;;;;;10290912;28;20056;-59
2023/11/06 04:08:58;;;;;;;1.65;1.30;;;;;;;;;;10281003;28;20551;-57
2023/11/06 04:13:56;;;;;;;2.17;1.10;;;;;;;;;;10287642;28;20072;-57
2023/11/06 04:18:56;;;;;;;1.42;1.02;;;;;;;;;;10290862;28;20055;-58
2023/11/06 04:23:54;;;;;;;1.30;1.02;;;;;;;;;;10288715;28;20088;-57
2023/11/06 04:28:53;;;;;;;0.93;0.90;;;;;;;;;;10291562;28;20076;-59
2023/11/06 04:33:51;;;;;;;2.90;1.33;;;;;;;;;;10286528;28;20491;-58
2023/11/06 04:38:50;;;;;;;1.27;1.17;;;;;;;;;;10288460;28;20069;-57
2023/11/06 04:43:49;;;;;;;1.10;1.00;;;;;;;;;;10289950;28;20074;-57
2023/11/06 04:48:47;;;;;;;2.08;1.45;;;;;;;;;;10286747;28;20068;-58
2023/11/06 04:53:45;;;;;;;1.52;1.20;;;;;;;;;;10287975;28;20068;-57
2023/11/06 04:58:45;;;;;;;1.40;1.30;;;;;;;;;;10288351;28;20056;-58
2023/11/06 05:03:43;;;;;;;2.22;1.30;;;;;;;;;;10290498;28;20080;-58
2023/11/06 05:08:41;;;;;;;4.43;2.13;;;;;;;;;;10290952;28;20091;-59
2023/11/06 05:13:39;;;;;;;1.88;1.13;;;;;;;;;;10287524;28;20086;-58
2023/11/06 05:18:39;;;;;;;8.93;2.55;;;;;;;;;;10287829;28;20084;-59
2023/11/06 05:23:38;;;;;;;5.43;1.60;;;;;;;;;;10278737;28;20508;-59
2023/11/06 05:28:36;;;;;;;1.67;1.20;;;;;;;;;;10285995;28;20509;-59
2023/11/06 05:33:35;;;;;;;1.38;1.20;;;;;;;;;;10287835;28;20068;-59
2023/11/06 05:38:35;;;;;;;11.13;7.03;;;;;;;;;;10290190;28;20065;-60
2023/11/06 05:43:33;;;;;;;2.35;1.30;;;;;;;;;;10288442;28;20067;-59
2023/11/06 05:48:31;;;;;;;1.67;1.20;;;;;;;;;;10288058;28;20072;-58
2023/11/06 05:53:30;;;;;;;2.88;1.60;;;;;;;;;;10291947;28;20103;-59
2023/11/06 05:58:29;;;;;;;4.13;1.77;;;;;;;;;;10289196;28;20480;-58
2023/11/06 06:03:27;;;;;;;2.85;1.50;;;;;;;;;;10288931;28;20068;-59
2023/11/06 06:08:26;;;;;;;1.48;1.38;;;;;;;;;;10288257;28;20513;-58
2023/11/06 06:13:25;;;;;;;3.92;1.58;;;;;;;;;;10285004;28;20080;-59
2023/11/06 06:18:24;;;;;;;1.63;1.42;;;;;;;;;;10280706;28;20088;-59
2023/11/06 06:23:23;;;;;;;5.53;2.35;;;;;;;;;;10284018;28;20091;-59
2023/11/06 06:28:21;;;;;;;10.02;4.50;;;;;;;;;;10287173;28;20073;-59
2023/11/06 06:33:19;;;;;;;10.25;4.93;;;;;;;;;;10285769;28;20075;-59
2023/11/06 06:38:20;;;;;;;14.75;5.38;;;;;;;;;;10295460;28;20072;-59
2023/11/06 06:43:18;;;;;;;5.35;3.35;;;;;;;;;;10290399;28;20091;-59
2023/11/06 06:48:17;;;;;;;6.65;2.80;;;;;;;;;;10290720;28;20061;-58
2023/11/06 06:53:15;;;;;;;3.72;2.80;;;;;;;;;;10294696;28;20067;-58
2023/11/06 06:58:15;;;;;;;3.30;2.75;;;;;;;;;;10293717;28;20079;-59
2023/11/06 07:03:13;;;;;;;6.10;3.47;;;;;;;;;;10291910;28;20083;-58
2023/11/06 07:08:12;;;;;;;12.32;5.13;;;;;;;;;;10293874;28;20094;-59
2023/11/06 07:13:10;;;;;;;5.65;3.00;;;;;;;;;;10291526;28;20069;-59
2023/11/06 07:18:10;;;;;;;3.00;2.67;;;;;;;;;;10293773;28;20096;-58
2023/11/06 07:23:09;;;;;;;4.20;2.30;;;;;;;;;;10294367;28;20095;-59
2023/11/06 07:28:07;;;;;;;2.50;2.00;;;;;;;;;;10292330;28;20082;-59
2023/11/06 07:33:05;;;;;;;2.72;1.90;;;;;;;;;;10293448;28;20076;-59
2023/11/06 07:38:06;;;;;;;4.18;2.90;;;;;;;;;;10290075;28;20080;-59
2023/11/06 07:43:04;;;;;;;4.35;3.92;;;;;;;;;;10285598;28;20070;-58
2023/11/06 07:48:05;;;;;;;4.38;2.80;;;;;;;;;;10289055;28;20455;-57
2023/11/06 07:53:05;;;;;;;3.80;3.38;;;;;;;;;;10290322;28;20514;-58
2023/11/06 07:58:04;;;;;;;2.45;2.13;;;;;;;;;;10289444;28;20064;-59
2023/11/06 08:03:02;;;;;;;2.25;1.50;;;;;;;;;;10290263;28;20072;-58
2023/11/06 08:08:03;;;;;;;7.55;2.08;;;;;;;;;;10288268;28;20067;-58
2023/11/06 08:13:02;;;;;;;4.32;2.40;;;;;;;;;;10290492;28;20100;-59
2023/11/06 08:18:00;;;;;;;4.38;3.20;;;;;;;;;;10288471;28;20080;-59
2023/11/06 08:22:59;;;;;;;4.15;1.98;;;;;;;;;;10291233;28;20150;-58
2023/11/06 08:27:57;;;;;;;3.75;1.90;;;;;;;;;;10291372;28;20072;-59
2023/11/06 08:32:57;;;;;;;4.38;2.72;;;;;;;;;;10290210;28;20076;-57
2023/11/06 08:37:55;;;;;;;7.75;2.25;;;;;;;;;;10291146;28;20064;-57
2023/11/06 08:42:53;;;;;;;5.03;2.17;;;;;;;;;;10286908;28;20076;-58
2023/11/06 08:47:51;;;;;;;4.55;2.15;;;;;;;;;;10286004;28;20084;-58
2023/11/06 08:52:51;;;;;;;5.30;1.92;;;;;;;;;;10289818;28;20080;-54
2023/11/06 08:57:49;;;;;;;5.22;2.08;;;;;;;;;;10277826;28;20091;-59
2023/11/06 09:02:47;;;;;;;2.92;1.52;;;;;;;;;;10286090;28;20068;-59
2023/11/06 09:07:47;;;;;;;3.58;2.22;;;;;;;;;;10283824;28;20057;-58
2023/11/06 09:12:47;;;;;;;7.28;2.38;;;;;;;;;;10281201;28;20072;-61
2023/11/06 09:17:45;;;;;;;3.30;1.77;;;;;;;;;;10287942;28;20072;-59
2023/11/06 09:22:44;;;;;;;4.90;1.83;;;;;;;;;;10288058;28;20483;-59
2023/11/06 09:27:43;;;;;;;6.32;2.05;;;;;;;;;;10286214;28;20068;-58
2023/11/06 09:32:42;;;;;;;4.15;1.58;;;;;;;;;;10296368;28;20079;-58
2023/11/06 09:37:41;;;;;;;5.95;1.90;;;;;;;;;;10288638;28;20056;-58
2023/11/06 09:42:40;;;;;;;5.57;2.05;;;;;;;;;;10286986;28;20174;-58
2023/11/06 09:47:41;;;;;;;6.00;2.70;;;;;;;;;;10286149;28;20510;-59
2023/11/06 09:52:43;;;;;;;5.55;1.83;;;;;;;;;;10284765;28;20733;-58
2023/11/06 09:57:41;;;;;;;4.25;2.40;;;;;;;;;;10286747;28;20067;-58
2023/11/06 10:02:39;;;;;;;3.83;2.42;;;;;;;;;;10281817;28;20491;-59
2023/11/06 10:07:38;;;;;;;3.67;1.60;;;;;;;;;;10290758;28;20064;-59
2023/11/06 10:12:37;;;;;;;5.70;1.98;;;;;;;;;;10290406;28;20068;-59
2023/11/06 10:17:37;;;;;;;4.05;2.10;;;;;;;;;;10293554;28;20080;-59
2023/11/06 10:22:36;;;;;;;5.18;1.73;;;;;;;;;;10295195;28;20473;-59
2023/11/06 10:27:36;;;;;;;7.40;1.60;;;;;;;;;;10293661;28;20068;-59
2023/11/06 10:32:36;;;;;;;10.80;2.28;;;;;;;;;;10294821;28;20071;-58
2023/11/06 10:37:39;;;;;;;4.25;2.22;;;;;;;;;;10287419;28;20060;-58
2023/11/06 10:42:40;;;;;;;5.77;2.40;;;;;;;;;;10289844;28;20533;-59
2023/11/06 10:47:43;;;;;;;3.85;1.77;;;;;;;;;;10292910;28;20064;-59
2023/11/06 10:52:44;;;;;;;6.60;2.65;;;;;;;;;;10293368;28;20084;-59
2023/11/06 10:57:42;;;;;;;7.07;1.83;;;;;;;;;;10294482;28;20069;-59
2023/11/06 11:02:47;;;;;;;2.72;1.77;;;;;;;;;;10292003;28;20529;-58
2023/11/06 11:07:47;;;;;;;4.38;1.52;;;;;;;;;;10297171;28;20072;-58
2023/11/06 11:12:46;;;;;;;5.35;1.90;;;;;;;;;;10292671;28;20067;-58
2023/11/06 11:17:58;;;;;;;2.80;1.70;;;;;;;;;;10294480;28;20080;-59
2023/11/06 11:23:03;;;;;;;4.55;1.90;;;;;;;;;;10292818;28;20086;-59
2023/11/06 11:28:14;;;;;;;1.65;1.30;;;;;;;;;;10297578;28;20489;-58
2023/11/06 11:33:34;;;;;;;6.53;1.90;;;;;;;;;;10295989;28;20064;-59
2023/11/06 11:38:33;;;;;;;5.97;2.85;;;;;;;;;;10290169;28;20456;-58
2023/11/06 11:43:41;;;;;;;5.10;2.00;;;;;;;;;;10290558;28;20521;-59
2023/11/06 11:48:57;;;;;;;3.92;2.50;;;;;;;;;;10292834;28;20103;-59
2023/11/06 11:53:57;;;;;;;3.63;1.60;;;;;;;;;;10292885;28;20080;-58
2023/11/06 11:58:57;;;;;;;6.97;2.35;;;;;;;;;;10292010;28;20076;-59
2023/11/06 12:03:55;;;;;;;4.70;2.38;;;;;;;;;;10292312;28;20068;-58
2023/11/06 12:08:58;;;;;;;5.85;2.47;;;;;;;;;;10293556;28;20096;-58
2023/11/06 12:13:56;;;;;;;6.63;2.75;;;;;;;;;;10292124;28;20080;-58
2023/11/06 12:18:56;;;;;;;4.93;1.77;;;;;;;;;;10291192;28;20084;-59
2023/11/06 12:23:55;;;;;;;3.42;1.83;;;;;;;;;;10291101;28;20075;-59
2023/11/06 12:28:55;;;;;;;15.85;2.90;;;;;;;;;;10291966;28;20513;-59
2023/11/06 12:33:54;;;;;;;8.18;2.10;;;;;;;;;;10292457;28;20310;-59
2023/11/06 12:38:52;;;;;;;6.95;3.15;;;;;;;;;;10291700;28;20068;-59
2023/11/06 12:43:51;;;;;;;3.30;1.98;;;;;;;;;;10291705;28;20483;-59
2023/11/06 12:48:51;;;;;;;6.13;1.98;;;;;;;;;;10290887;28;20132;-59
2023/11/06 12:53:51;;;;;;;4.85;2.13;;;;;;;;;;10290710;28;20091;-59
2023/11/06 12:58:49;;;;;;;4.90;1.75;;;;;;;;;;10289513;28;20523;-58
2023/11/06 13:03:49;;;;;;;4.10;2.10;;;;;;;;;;10291707;28;20080;-60
2023/11/06 13:08:49;;;;;;;7.07;2.35;;;;;;;;;;10286391;28;20485;-58
2023/11/06 13:13:47;;;;;;;3.55;2.10;;;;;;;;;;10285140;28;20088;-58
2023/11/06 13:18:46;;;;;;;9.82;2.40;;;;;;;;;;10288143;28;20048;-59
2023/11/06 13:23:46;;;;;;;5.28;2.00;;;;;;;;;;10289793;28;20071;-59
2023/11/06 13:28:47;;;;;;;4.35;1.92;;;;;;;;;;10288651;28;20037;-58
2023/11/06 13:33:45;;;;;;;4.05;2.00;;;;;;;;;;10289328;28;20079;-59
2023/11/06 13:38:44;;;;;;;5.25;1.98;;;;;;;;;;10289170;28;20076;-60
2023/11/06 13:43:42;;;;;;;5.15;1.70;;;;;;;;;;10293657;28;20064;-60
2023/11/06 13:48:47;;;;;;;4.72;2.50;;;;;;;;;;10298285;28;20059;-59
2023/11/06 13:53:47;;;;;;;4.57;2.13;;;;;;;;;;10297664;28;20076;-59
2023/11/06 13:58:47;;;;;;;7.32;2.55;;;;;;;;;;10297393;28;20072;-59
2023/11/06 14:03:48;;;;;;;5.65;2.55;;;;;;;;;;10296279;28;20465;-60
2023/11/06 14:08:46;;;;;;;5.53;2.60;;;;;;;;;;10298815;28;20072;-58
2023/11/06 14:13:45;;;;;;;10.50;2.47;;;;;;;;;;10300655;28;20088;-59
2023/11/06 14:18:50;;;;;;;5.28;1.83;;;;;;;;;;10295489;28;20080;-59
2023/11/06 14:23:48;;;;;;;5.72;2.90;;;;;;;;;;10293038;28;20079;-58
2023/11/06 14:28:47;;;;;;;4.20;1.50;;;;;;;;;;10296279;28;20079;-59
2023/11/06 14:33:47;;;;;;;4.07;2.45;;;;;;;;;;10293879;28;20072;-58
2023/11/06 14:38:47;;;;;;;5.35;3.83;;;;;;;;;;10295208;28;20483;-58
2023/11/06 14:43:45;;;;;;;4.03;1.92;;;;;;;;;;10293832;28;20044;-59
2023/11/06 14:48:44;;;;;;;9.00;3.42;;;;;;;;;;10295076;28;20510;-59
2023/11/06 14:53:55;;;;;;;7.55;3.25;;;;;;;;;;10294770;28;20080;-58
2023/11/06 14:58:53;;;;;;;7.15;4.03;;;;;;;;;;10294296;28;20100;-61
2023/11/06 15:03:51;;;;;;;5.97;2.97;;;;;;;;;;10295548;28;20105;-58
2023/11/06 15:08:50;;;;;;;6.18;2.72;;;;;;;;;;10288748;28;20502;-59
2023/11/06 15:13:50;;;;;;;17.98;4.82;;;;;;;;;;10290480;28;20068;-59
2023/11/06 15:18:48;;;;;;;6.40;3.63;;;;;;;;;;10292802;28;20076;-57
2023/11/06 15:23:48;;;;;;;7.35;4.00;;;;;;;;;;10289162;28;20061;-59
2023/11/06 15:28:46;;;;;;;7.18;3.35;;;;;;;;;;10292540;28;20056;-57
2023/11/06 15:33:46;;;;;;;6.68;2.92;;;;;;;;;;10291721;28;20075;-58
2023/11/06 15:38:44;;;;;;;5.20;3.60;;;;;;;;;;10293409;28;20071;-59
2023/11/06 15:43:43;;;;;;;5.05;3.10;;;;;;;;;;10293427;28;20064;-59
2023/11/06 15:48:41;;;;;;;7.95;4.53;;;;;;;;;;10292408;28;20057;-59
2023/11/06 15:53:41;;;;;;;4.50;2.70;;;;;;;;;;10292065;28;20068;-59
2023/11/06 15:58:40;;;;;;;11.55;7.63;;;;;;;;;;10293157;28;20073;-59
2023/11/06 16:03:38;;;;;;;8.32;3.45;;;;;;;;;;10296768;28;20075;-59
2023/11/06 16:08:38;;;;;;;3.67;2.50;;;;;;;;;;10291857;28;20477;-59
2023/11/06 16:13:38;;;;;;;5.65;2.75;;;;;;;;;;10287615;28;20072;-59
2023/11/06 16:18:37;;;;;;;5.88;3.30;;;;;;;;;;10286578;28;20087;-58
2023/11/06 16:23:39;;;;;;;5.55;3.75;;;;;;;;;;10289300;28;20080;-60
2023/11/06 16:28:39;;;;;;;3.55;2.20;;;;;;;;;;10290768;28;20064;-59
2023/11/06 16:33:38;;;;;;;8.93;3.30;;;;;;;;;;10281051;28;20072;-59
2023/11/06 16:38:36;;;;;;;9.73;3.28;;;;;;;;;;10289204;28;20072;-59
2023/11/06 16:43:35;;;;;;;10.50;7.07;;;;;;;;;;10278000;28;20072;-60
2023/11/06 16:48:34;;;;;;;8.10;4.35;;;;;;;;;;10287873;28;20083;-59
2023/11/06 16:53:33;;;;;;;6.07;3.55;;;;;;;;;;10291586;28;20249;-61
2023/11/06 16:58:32;;;;;;;6.53;3.88;;;;;;;;;;10297527;28;20072;-59
2023/11/06 17:03:31;;;;;;;5.72;2.63;;;;;;;;;;10288118;28;20127;-59
2023/11/06 17:08:30;;;;;;;5.10;3.22;;;;;;;;;;10288549;28;20072;-58
2023/11/06 17:13:30;;;;;;;7.90;3.53;;;;;;;;;;10288665;28;20077;-59
2023/11/06 17:18:29;;;;;;;8.52;4.22;;;;;;;;;;10289857;28;20080;-58
2023/11/06 17:23:27;;;;;;;15.40;6.07;;;;;;;;;;10288044;28;20128;-59
2023/11/06 17:28:27;;;;;;;15.70;11.05;;;;;;;;;;10291196;28;20075;-58
2023/11/06 17:33:25;;;;;;;9.40;7.63;;;;;;;;;;10289113;28;20080;-59
2023/11/06 17:38:25;;;;;;;12.15;8.63;;;;;;;;;;10287670;28;20068;-57
2023/11/06 17:43:23;;;;;;;21.35;17.95;;;;;;;;;;10288351;28;20072;-59
2023/11/06 17:48:23;;;;;;;5.50;4.45;;;;;;;;;;10285249;28;20330;-58
2023/11/06 17:53:22;;;;;;;13.48;3.08;;;;;;;;;;10281028;28;20072;-58
2023/11/06 17:58:20;;;;;;;5.97;2.28;;;;;;;;;;10284676;28;20514;-58
2023/11/06 18:03:19;;;;;;;5.75;2.58;;;;;;;;;;10275654;28;20086;-57
2023/11/06 18:08:19;;;;;;;4.03;2.33;;;;;;;;;;10286553;28;20072;-57
2023/11/06 18:13:17;;;;;;;6.25;2.33;;;;;;;;;;10285156;28;20072;-55
2023/11/06 18:18:15;;;;;;;3.40;2.00;;;;;;;;;;10288096;28;20092;-58
2023/11/06 18:23:14;;;;;;;6.97;2.22;;;;;;;;;;10284927;28;20513;-57
2023/11/06 18:28:14;;;;;;;3.88;2.58;;;;;;;;;;10287229;28;20120;-55
2023/11/06 18:33:12;;;;;;;4.97;1.90;;;;;;;;;;10295320;28;20087;-57
2023/11/06 18:38:10;;;;;;;3.60;1.98;;;;;;;;;;10296110;28;20073;-59
2023/11/06 18:43:09;;;;;;;5.07;2.53;;;;;;;;;;10294196;28;20072;-57
2023/11/06 18:48:08;;;;;;;6.38;2.33;;;;;;;;;;10299541;28;20057;-59
2023/11/06 18:53:08;;;;;;;5.20;2.00;;;;;;;;;;10290704;28;20072;-58
2023/11/06 18:58:08;;;;;;;6.45;1.65;;;;;;;;;;10293610;28;20079;-55
2023/11/06 19:03:07;;;;;;;2.97;1.90;;;;;;;;;;10284761;28;20068;-58
2023/11/06 19:08:06;;;;;;;5.78;2.10;;;;;;;;;;10299461;28;20076;-57
2023/11/06 19:13:04;;;;;;;3.78;2.33;;;;;;;;;;10286024;28;20076;-57
2023/11/06 19:18:03;;;;;;;8.13;3.13;;;;;;;;;;10294641;28;20072;-54
2023/11/06 19:23:03;;;;;;;4.47;2.40;;;;;;;;;;10290768;28;20548;-57
2023/11/06 19:28:01;;;;;;;4.10;1.73;;;;;;;;;;10291830;28;20080;-58
2023/11/06 19:32:59;;;;;;;6.38;2.47;;;;;;;;;;10291267;28;20545;-56
2023/11/06 19:37:59;;;;;;;5.32;2.08;;;;;;;;;;10293572;28;20577;-58
2023/11/06 19:43:00;;;;;;;5.47;2.28;;;;;;;;;;10288692;28;20513;-57
2023/11/06 19:47:58;;;;;;;4.00;2.38;;;;;;;;;;10291095;28;20072;-56
2023/11/06 19:52:57;;;;;;;3.95;2.15;;;;;;;;;;10290304;28;20493;-56
2023/11/06 19:57:55;;;;;;;6.35;3.00;;;;;;;;;;10290960;28;20524;-57
2023/11/06 20:02:55;;;;;;;4.72;2.78;;;;;;;;;;10277595;28;20068;-56
2023/11/06 20:07:55;;;;;;;4.32;2.00;;;;;;;;;;10276377;28;20068;-58
2023/11/06 20:12:53;;;;;;;4.93;2.03;;;;;;;;;;10274409;28;20077;-59
2023/11/06 20:17:52;;;;;;;3.92;1.85;;;;;;;;;;10277763;28;20095;-57
2023/11/06 20:22:52;;;;;;;3.85;1.98;;;;;;;;;;10280800;28;20076;-58
2023/11/06 20:27:51;;;;;;;9.32;2.78;;;;;;;;;;10287964;28;20099;-55
2023/11/06 20:32:49;;;;;;;5.10;2.45;;;;;;;;;;10289623;28;21895;-56
2023/11/06 20:37:48;;;;;;;8.68;2.30;;;;;;;;;;10289497;28;20086;-56
2023/11/06 20:42:47;;;;;;;4.07;2.38;;;;;;;;;;10289549;28;20071;-56
2023/11/06 20:47:47;;;;;;;4.60;2.50;;;;;;;;;;10290966;28;20095;-57
2023/11/06 20:52:45;;;;;;;3.38;2.03;;;;;;;;;;10287389;28;20110;-53
2023/11/06 20:57:44;;;;;;;5.03;2.28;;;;;;;;;;10290163;28;20068;-52
2023/11/06 21:02:43;;;;;;;2.92;1.70;;;;;;;;;;10289828;28;20076;-56
2023/11/06 21:07:42;;;;;;;3.65;2.20;;;;;;;;;;10290866;28;20064;-58
2023/11/06 21:12:40;;;;;;;5.15;2.55;;;;;;;;;;10289293;28;20039;-55
2023/11/06 21:17:39;;;;;;;8.18;2.35;;;;;;;;;;10289804;28;20080;-56
2023/11/06 21:22:40;;;;;;;4.60;1.88;;;;;;;;;;10301957;28;20055;-57
2023/11/06 21:27:39;;;;;;;3.25;2.30;;;;;;;;;;10288088;28;20080;-58
2023/11/06 21:32:37;;;;;;;5.93;2.15;;;;;;;;;;10288468;28;20076;-58
2023/11/06 21:37:36;;;;;;;6.57;2.00;;;;;;;;;;10289265;28;20069;-57
2023/11/06 21:42:36;;;;;;;4.97;1.90;;;;;;;;;;10288887;28;20085;-56
2023/11/06 21:47:37;;;;;;;5.68;2.72;;;;;;;;;;10290622;28;20084;-57
2023/11/06 21:52:36;;;;;;;9.05;2.65;;;;;;;;;;10284213;28;20077;-58
2023/11/06 21:57:37;;;;;;;5.43;1.77;;;;;;;;;;10288916;28;20099;-57
2023/11/06 22:02:35;;;;;;;5.90;2.22;;;;;;;;;;10287134;28;20072;-58
2023/11/06 22:07:34;;;;;;;2.95;1.70;;;;;;;;;;10297144;28;20065;-57
2023/11/06 22:12:32;;;;;;;4.32;2.00;;;;;;;;;;10295856;28;20068;-58
2023/11/06 22:17:32;;;;;;;3.38;1.90;;;;;;;;;;10295639;28;20107;-58
2023/11/06 22:22:32;;;;;;;2.95;1.98;;;;;;;;;;10295326;28;20060;-57
2023/11/06 22:27:30;;;;;;;3.22;1.52;;;;;;;;;;10296575;28;20076;-58
2023/11/06 22:32:28;;;;;;;5.38;2.08;;;;;;;;;;10295943;28;20532;-58
2023/11/06 22:37:28;;;;;;;2.63;1.63;;;;;;;;;;10295109;28;20072;-56
2023/11/06 22:42:26;;;;;;;4.30;2.00;;;;;;;;;;10296240;28;20290;-57
2023/11/06 22:47:24;;;;;;;6.80;2.15;;;;;;;;;;10295147;28;20084;-57
2023/11/06 22:52:23;;;;;;;2.92;1.80;;;;;;;;;;10294085;28;20522;-57
2023/11/06 22:57:22;;;;;;;7.70;2.00;;;;;;;;;;10290925;28;20087;-58
2023/11/06 23:02:20;;;;;;;6.03;2.33;;;;;;;;;;10294346;28;20083;-57
2023/11/06 23:07:19;;;;;;;3.67;1.88;;;;;;;;;;10295937;28;20072;-58
2023/11/06 23:12:17;;;;;;;5.03;2.20;;;;;;;;;;10293344;28;20522;-57
2023/11/06 23:17:16;;;;;;;1.80;1.63;;;;;;;;;;10294850;28;20104;-57
2023/11/06 23:22:15;;;;;;;3.55;1.95;;;;;;;;;;10296231;28;20509;-58
2023/11/06 23:27:13;;;;;;;2.40;1.65;;;;;;;;;;10294139;28;20073;-54
2023/11/06 23:32:12;;;;;;;4.68;1.70;;;;;;;;;;10294333;28;20091;-57
2023/11/06 23:37:11;;;;;;;5.90;2.05;;;;;;;;;;10292509;28;20081;-58
2023/11/06 23:42:10;;;;;;;6.55;2.30;;;;;;;;;;10295648;28;20072;-58
2023/11/06 23:47:08;;;;;;;3.10;1.92;;;;;;;;;;10292200;28;20068;-56
2023/11/06 23:52:06;;;;;;;9.63;2.28;;;;;;;;;;10292118;28;20091;-56
2023/11/06 23:57:06;;;;;;;4.38;1.38;;;;;;;;;;10292181;28;20083;-56
